createdAt,value
2017-10-18T00:01:31.182Z,116.90
2017-10-18T00:03:58.611Z,106.20
2017-10-18T00:06:26.786Z,98.10
2017-10-18T00:08:54.217Z,97.90
2017-10-18T00:11:21.638Z,100.30
2017-10-18T00:13:49.051Z,91.23
2017-10-18T00:16:16.482Z,99.10
2017-10-18T00:18:43.879Z,88.40
2017-10-18T00:21:11.303Z,99.37
2017-10-18T00:23:39.516Z,94.83
2017-10-18T00:26:06.955Z,83.47
2017-10-18T00:28:35.158Z,82.87
2017-10-18T00:31:02.586Z,87.77
2017-10-18T00:33:30.016Z,89.17
2017-10-18T00:35:58.220Z,85.87
2017-10-18T00:38:25.636Z,97.07
2017-10-18T00:40:54.578Z,89.20
2017-10-18T00:43:22.945Z,94.07
2017-10-18T00:45:50.366Z,84.67
2017-10-18T00:48:18.546Z,91.50
2017-10-18T00:50:47.642Z,97.55
2017-10-18T00:53:15.039Z,85.80
2017-10-18T00:55:42.458Z,81.90
2017-10-18T00:58:10.652Z,85.90
2017-10-18T01:00:38.071Z,103.70
2017-10-18T01:03:05.999Z,87.17
2017-10-18T01:05:33.416Z,87.13
2017-10-18T01:08:01.603Z,93.60
2017-10-18T01:10:29.025Z,95.63
2017-10-18T01:12:57.203Z,91.93
2017-10-18T01:15:24.627Z,90.07
2017-10-18T01:17:52.138Z,94.00
2017-10-18T01:20:20.328Z,93.17
2017-10-18T01:22:47.760Z,99.53
2017-10-18T01:25:15.959Z,96.03
2017-10-18T01:27:43.378Z,100.10
2017-10-18T01:30:11.579Z,104.37
2017-10-18T01:32:38.994Z,85.87
2017-10-18T01:35:06.410Z,91.83
2017-10-18T01:37:33.862Z,82.30
2017-10-18T01:40:01.679Z,86.37
2017-10-18T01:42:29.119Z,91.80
2017-10-18T01:44:56.541Z,87.50
2017-10-18T01:47:23.984Z,96.07
2017-10-18T01:49:51.395Z,91.60
2017-10-18T01:52:18.823Z,89.70
2017-10-18T01:54:46.252Z,91.00
2017-10-18T01:57:13.707Z,88.63
2017-10-18T01:59:41.121Z,86.47
2017-10-18T02:02:08.547Z,89.17
2017-10-18T02:04:35.966Z,90.83
2017-10-18T02:07:03.964Z,90.82
2017-10-18T02:09:31.387Z,92.30
2017-10-18T02:11:59.668Z,86.83
2017-10-18T02:14:27.841Z,84.50
2017-10-18T02:16:56.037Z,84.13
2017-10-18T02:19:23.447Z,91.77
2017-10-18T02:21:51.648Z,90.33
2017-10-18T02:24:19.064Z,88.80
2017-10-18T02:26:46.484Z,81.90
2017-10-18T02:29:13.940Z,81.97
2017-10-18T02:31:41.355Z,79.40
2017-10-18T02:34:09.563Z,82.10
2017-10-18T02:36:37.052Z,77.60
2017-10-18T02:39:04.475Z,73.47
2017-10-18T02:41:31.897Z,77.30
2017-10-18T02:44:00.067Z,79.13
2017-10-18T02:46:28.251Z,71.80
2017-10-18T02:48:56.453Z,86.13
2017-10-18T02:51:23.862Z,93.87
2017-10-18T02:53:51.288Z,76.17
2017-10-18T02:56:19.721Z,68.80
2017-10-18T02:58:48.855Z,71.10
2017-10-18T03:01:16.276Z,78.30
2017-10-18T03:03:43.695Z,84.77
2017-10-18T03:06:11.877Z,71.60
2017-10-18T03:08:39.303Z,86.33
2017-10-18T03:11:06.725Z,88.57
2017-10-18T03:13:34.235Z,81.20
2017-10-18T03:16:01.659Z,84.10
2017-10-18T03:18:29.114Z,85.50
2017-10-18T03:20:56.623Z,87.23
2017-10-18T03:23:24.806Z,87.87
2017-10-18T03:25:52.991Z,92.17
2017-10-18T03:28:20.412Z,91.13
2017-10-18T03:30:47.850Z,91.17
2017-10-18T03:33:15.263Z,85.73
2017-10-18T03:35:42.756Z,100.40
2017-10-18T03:38:10.192Z,91.60
2017-10-18T03:40:37.596Z,87.00
2017-10-18T03:43:05.031Z,87.23
2017-10-18T03:45:32.474Z,92.23
2017-10-18T03:47:59.871Z,93.93
2017-10-18T03:50:27.295Z,82.57
2017-10-18T03:52:54.711Z,94.00
2017-10-18T03:55:22.136Z,83.10
2017-10-18T03:57:50.955Z,85.38
2017-10-18T04:00:18.396Z,88.07
2017-10-18T04:02:46.594Z,88.53
2017-10-18T04:05:14.051Z,103.23
2017-10-18T04:07:41.467Z,90.13
2017-10-18T04:10:08.886Z,85.50
2017-10-18T04:12:36.306Z,87.45
2017-10-18T04:15:04.513Z,95.53
2017-10-18T04:17:31.921Z,94.03
2017-10-18T04:19:59.341Z,99.90
2017-10-18T04:22:26.756Z,92.20
2017-10-18T04:24:54.173Z,91.63
2017-10-18T04:27:21.602Z,89.80
2017-10-18T04:29:49.032Z,95.27
2017-10-18T04:32:16.665Z,89.03
2017-10-18T04:34:44.838Z,85.40
2017-10-18T04:37:13.035Z,86.63
2017-10-18T04:39:40.509Z,90.67
2017-10-18T04:42:07.931Z,88.50
2017-10-18T04:44:36.098Z,93.80
2017-10-18T04:47:04.282Z,82.90
2017-10-18T04:49:31.695Z,78.90
2017-10-18T04:51:59.110Z,77.97
2017-10-18T04:54:26.530Z,83.27
2017-10-18T04:56:54.719Z,76.70
2017-10-18T04:59:22.891Z,73.10
2017-10-18T05:01:52.006Z,75.00
2017-10-18T05:04:19.419Z,72.53
2017-10-18T05:06:46.843Z,79.77
2017-10-18T05:09:14.254Z,82.70
2017-10-18T05:11:41.684Z,74.18
2017-10-18T05:14:09.106Z,82.03
2017-10-18T05:16:36.526Z,74.13
2017-10-18T05:19:04.703Z,68.60
2017-10-18T05:21:32.142Z,78.13
2017-10-18T05:24:00.326Z,83.40
2017-10-18T05:26:28.502Z,74.43
2017-10-18T05:28:55.927Z,78.10
2017-10-18T05:31:23.339Z,64.37
2017-10-18T05:33:50.775Z,73.43
2017-10-18T05:36:18.197Z,71.27
2017-10-18T05:38:47.141Z,69.17
2017-10-18T05:41:14.541Z,66.27
2017-10-18T05:43:41.968Z,77.50
2017-10-18T05:46:09.388Z,66.10
2017-10-18T05:48:37.566Z,71.77
2017-10-18T05:51:04.983Z,74.97
2017-10-18T05:53:32.412Z,65.77
2017-10-18T05:55:59.823Z,74.87
2017-10-18T05:58:27.252Z,77.83
2017-10-18T06:00:54.669Z,72.00
2017-10-18T06:03:22.838Z,65.95
2017-10-18T06:05:55.861Z,69.70
2017-10-18T06:08:23.380Z,70.33
2017-10-18T06:10:50.771Z,79.63
2017-10-18T06:13:18.188Z,84.10
2017-10-18T06:15:45.595Z,64.13
2017-10-18T06:18:13.103Z,53.40
2017-10-18T06:20:40.498Z,71.93
2017-10-18T06:23:08.748Z,63.87
2017-10-18T06:25:36.163Z,57.90
2017-10-18T06:28:04.351Z,54.70
2017-10-18T06:30:31.772Z,59.07
2017-10-18T06:32:59.946Z,56.97
2017-10-18T06:35:28.130Z,59.77
2017-10-18T06:37:56.344Z,49.47
2017-10-18T06:40:23.767Z,67.80
2017-10-18T06:42:51.951Z,63.47
2017-10-18T06:45:19.382Z,56.03
2017-10-18T06:47:46.884Z,62.50
2017-10-18T06:50:14.296Z,65.30
2017-10-18T06:52:41.712Z,68.70
2017-10-18T06:55:09.134Z,73.93
2017-10-18T06:57:36.579Z,75.77
2017-10-18T07:00:04.040Z,57.80
2017-10-18T07:02:32.215Z,75.13
2017-10-18T07:05:00.408Z,62.57
2017-10-18T07:07:28.063Z,68.30
2017-10-18T07:09:55.478Z,73.93
2017-10-18T07:12:23.154Z,64.63
2017-10-18T07:14:50.550Z,79.27
2017-10-18T07:17:17.970Z,86.50
2017-10-18T07:19:46.151Z,70.17
2017-10-18T07:22:13.567Z,73.30
2017-10-18T07:24:40.987Z,64.47
2017-10-18T07:27:08.408Z,79.13
2017-10-18T07:29:36.595Z,63.03
2017-10-18T07:32:04.024Z,64.00
2017-10-18T07:34:32.966Z,71.30
2017-10-18T07:37:00.390Z,74.20
2017-10-18T07:39:27.811Z,91.80
2017-10-18T07:41:55.243Z,80.57
2017-10-18T07:44:22.641Z,78.47
2017-10-18T07:46:50.835Z,88.37
2017-10-18T07:49:18.253Z,86.80
2017-10-18T07:51:45.672Z,101.57
2017-10-18T07:54:13.096Z,88.63
2017-10-18T07:56:41.307Z,114.17
2017-10-18T07:59:08.719Z,94.13
2017-10-18T08:01:37.031Z,113.43
2017-10-18T08:04:04.476Z,100.43
2017-10-18T08:06:32.660Z,89.43
2017-10-18T08:09:00.119Z,100.30
2017-10-18T08:11:27.518Z,95.50
2017-10-18T08:13:56.034Z,108.80
2017-10-18T08:16:23.448Z,97.17
2017-10-18T08:18:50.869Z,109.47
2017-10-18T08:21:18.294Z,107.80
2017-10-18T08:23:46.485Z,109.00
2017-10-18T08:26:13.919Z,126.70
2017-10-18T08:28:42.114Z,118.47
2017-10-18T08:31:09.558Z,132.33
2017-10-18T08:33:37.743Z,129.00
2017-10-18T08:36:05.152Z,143.93
2017-10-18T08:38:32.583Z,172.53
2017-10-18T08:41:00.003Z,150.00
2017-10-18T08:43:27.434Z,155.97
2017-10-18T08:45:56.574Z,149.97
2017-10-18T08:48:23.989Z,165.03
2017-10-18T08:50:52.343Z,156.83
2017-10-18T08:53:19.759Z,160.73
2017-10-18T08:55:47.191Z,185.77
2017-10-18T08:58:15.437Z,181.10
2017-10-18T09:00:42.852Z,173.13
2017-10-18T09:03:10.310Z,179.43
2017-10-18T09:05:37.764Z,167.47
2017-10-18T09:08:05.179Z,154.70
2017-10-18T09:10:33.401Z,181.27
2017-10-18T09:13:00.824Z,159.10
2017-10-18T09:15:28.245Z,165.13
2017-10-18T09:17:56.632Z,165.17
2017-10-18T09:20:24.055Z,148.63
2017-10-18T09:22:51.484Z,152.63
2017-10-18T09:25:18.908Z,157.70
2017-10-18T09:27:47.116Z,144.07
2017-10-18T09:30:14.572Z,149.90
2017-10-18T09:32:42.040Z,144.87
2017-10-18T09:35:09.434Z,157.90
2017-10-18T09:37:36.867Z,132.33
2017-10-18T09:40:04.308Z,145.90
2017-10-18T09:42:31.730Z,140.43
2017-10-18T09:44:59.918Z,131.60
2017-10-18T09:47:27.352Z,140.70
2017-10-18T09:49:54.856Z,147.47
2017-10-18T09:52:22.316Z,132.13
2017-10-18T09:54:49.739Z,151.47
2017-10-18T09:57:17.844Z,178.60
2017-10-18T09:59:45.258Z,150.23
2017-10-18T10:02:13.451Z,165.67
2017-10-18T10:04:40.871Z,158.50
2017-10-18T10:07:08.314Z,166.83
2017-10-18T10:09:35.738Z,156.43
2017-10-18T10:12:03.182Z,170.67
2017-10-18T10:14:30.586Z,156.47
2017-10-18T10:16:58.018Z,183.73
2017-10-18T10:19:25.431Z,172.33
2017-10-18T10:21:52.907Z,162.67
2017-10-18T10:24:20.321Z,163.67
2017-10-18T10:26:51.051Z,153.23
2017-10-18T10:29:18.479Z,143.93
2017-10-18T10:31:45.903Z,144.17
2017-10-18T10:34:13.320Z,159.90
2017-10-18T10:36:42.518Z,166.43
2017-10-18T10:39:09.964Z,151.83
2017-10-18T10:41:37.390Z,151.93
2017-10-18T10:44:04.816Z,128.63
2017-10-18T10:46:32.243Z,126.23
2017-10-18T10:48:59.658Z,121.70
2017-10-18T10:51:27.098Z,117.83
2017-10-18T10:53:54.538Z,117.67
2017-10-18T10:56:21.963Z,117.00
2017-10-18T10:58:49.408Z,118.67
2017-10-18T11:01:16.834Z,135.67
2017-10-18T11:03:44.270Z,107.63
2017-10-18T11:06:11.687Z,101.27
2017-10-18T11:08:39.206Z,98.20
2017-10-18T11:11:06.653Z,92.70
2017-10-18T11:13:34.544Z,97.90
2017-10-18T11:16:01.976Z,104.40
2017-10-18T11:18:29.542Z,98.10
2017-10-18T11:20:56.995Z,101.77
2017-10-18T11:23:24.410Z,94.20
2017-10-18T11:25:52.593Z,91.20
2017-10-18T11:28:20.797Z,93.53
2017-10-18T11:30:48.631Z,91.60
2017-10-18T11:33:16.823Z,83.80
2017-10-18T11:35:44.294Z,85.50
2017-10-18T11:38:11.723Z,87.50
2017-10-18T11:40:39.136Z,89.60
2017-10-18T11:43:06.558Z,86.03
2017-10-18T11:45:33.969Z,80.33
2017-10-18T11:48:02.158Z,83.53
2017-10-18T11:50:30.444Z,84.60
2017-10-18T11:52:59.583Z,76.13
2017-10-18T11:55:27.003Z,74.73
2017-10-18T11:57:54.433Z,79.90
2017-10-18T12:00:22.619Z,81.23
2017-10-18T12:02:50.626Z,71.83
2017-10-18T12:05:18.051Z,77.00
2017-10-18T12:07:45.494Z,72.30
2017-10-18T12:10:13.726Z,73.10
2017-10-18T12:12:41.162Z,68.20
2017-10-18T12:15:08.556Z,67.90
2017-10-18T12:17:35.973Z,69.13
2017-10-18T12:20:03.389Z,62.03
2017-10-18T12:22:31.606Z,69.33
2017-10-18T12:24:59.031Z,63.63
2017-10-18T12:27:26.458Z,72.60
2017-10-18T12:29:53.884Z,69.83
2017-10-18T12:32:21.307Z,73.00
2017-10-18T12:34:48.815Z,65.93
2017-10-18T12:37:16.349Z,62.83
2017-10-18T12:39:44.531Z,56.90
2017-10-18T12:42:11.950Z,63.90
2017-10-18T12:44:39.364Z,67.47
2017-10-18T12:47:06.896Z,64.20
2017-10-18T12:49:34.698Z,70.17
2017-10-18T12:52:02.879Z,67.10
2017-10-18T12:54:31.778Z,95.10
2017-10-18T12:57:00.905Z,100.73
2017-10-18T12:59:28.375Z,100.80
2017-10-18T13:01:55.770Z,79.63
2017-10-18T13:04:23.991Z,79.07
2017-10-18T13:06:51.422Z,66.17
2017-10-18T13:09:19.620Z,82.53
2017-10-18T13:11:47.076Z,70.37
2017-10-18T13:14:14.486Z,64.27
2017-10-18T13:16:42.709Z,79.03
2017-10-18T13:19:10.164Z,76.53
2017-10-18T13:21:37.592Z,108.73
2017-10-18T13:24:05.779Z,123.27
2017-10-18T13:26:33.206Z,111.20
2017-10-18T13:29:00.622Z,113.50
2017-10-18T13:31:28.064Z,104.63
2017-10-18T13:33:55.483Z,111.20
2017-10-18T13:36:23.672Z,101.63
2017-10-18T13:38:51.097Z,88.60
2017-10-18T13:41:18.539Z,80.50
2017-10-18T13:43:45.958Z,83.73
2017-10-18T13:46:13.417Z,75.50
2017-10-18T13:48:40.840Z,82.03
2017-10-18T13:51:09.010Z,75.20
2017-10-18T13:53:37.197Z,65.53
2017-10-18T13:56:04.619Z,63.60
2017-10-18T13:58:33.283Z,78.87
2017-10-18T14:01:00.676Z,73.23
2017-10-18T14:03:28.859Z,74.03
2017-10-18T14:05:57.062Z,77.90
2017-10-18T14:08:24.486Z,63.90
2017-10-18T14:10:52.671Z,86.40
2017-10-18T14:13:20.082Z,69.23
2017-10-18T14:15:47.499Z,69.37
2017-10-18T14:18:15.122Z,63.67
2017-10-18T14:20:43.313Z,68.37
2017-10-18T14:23:11.511Z,69.20
2017-10-18T14:25:38.925Z,78.47
2017-10-18T14:28:07.106Z,75.10
2017-10-18T14:30:35.302Z,72.67
2017-10-18T14:33:04.003Z,72.10
2017-10-18T14:35:33.101Z,82.37
2017-10-18T14:38:00.850Z,74.03
2017-10-18T14:40:28.282Z,73.77
2017-10-18T14:42:56.503Z,71.10
2017-10-18T14:45:23.952Z,73.77
2017-10-18T14:47:52.086Z,69.60
2017-10-18T14:50:20.266Z,67.00
2017-10-18T14:52:47.686Z,74.07
2017-10-18T14:55:16.031Z,78.87
2017-10-18T14:57:43.523Z,78.57
2017-10-18T15:00:10.923Z,79.47
2017-10-18T15:02:38.398Z,77.07
2017-10-18T15:05:05.816Z,80.93
2017-10-18T15:07:34.717Z,91.97
2017-10-18T15:10:03.819Z,87.13
2017-10-18T15:12:31.244Z,96.50
2017-10-18T15:14:58.751Z,93.97
2017-10-18T15:17:26.178Z,93.77
2017-10-18T15:19:54.364Z,89.13
2017-10-18T15:22:21.798Z,86.07
2017-10-18T15:24:49.215Z,99.63
2017-10-18T15:27:16.635Z,95.43
2017-10-18T15:29:44.050Z,97.60
2017-10-18T15:32:11.476Z,100.27
2017-10-18T15:34:38.895Z,97.70
2017-10-18T15:37:06.312Z,96.33
2017-10-18T15:39:35.312Z,96.07
2017-10-18T15:42:02.736Z,120.60
2017-10-18T15:44:30.147Z,101.23
2017-10-18T15:46:58.343Z,113.10
2017-10-18T15:49:25.770Z,104.00
2017-10-18T15:51:53.947Z,99.83
2017-10-18T15:54:22.145Z,127.07
2017-10-18T15:56:49.567Z,113.67
2017-10-18T15:59:17.761Z,110.47
2017-10-18T16:01:45.199Z,111.10
2017-10-18T16:04:13.378Z,114.73
2017-10-18T16:06:41.672Z,109.47
2017-10-18T16:09:09.109Z,115.20
2017-10-18T16:11:37.301Z,97.53
2017-10-18T16:14:05.786Z,102.20
2017-10-18T16:16:33.206Z,99.47
2017-10-18T16:19:00.633Z,105.50
2017-10-18T16:21:28.068Z,103.67
2017-10-18T16:23:55.499Z,127.30
2017-10-18T16:26:22.929Z,108.67
2017-10-18T16:28:51.862Z,110.27
2017-10-18T16:31:19.287Z,108.93
2017-10-18T16:33:47.487Z,118.10
2017-10-18T16:36:14.899Z,108.97
2017-10-18T16:38:42.359Z,113.53
2017-10-18T16:41:09.816Z,113.90
2017-10-18T16:43:37.240Z,102.50
2017-10-18T16:46:06.198Z,115.62
2017-10-18T16:48:34.236Z,125.00
2017-10-18T16:51:01.646Z,120.70
2017-10-18T16:53:29.079Z,123.23
2017-10-18T16:55:56.502Z,121.53
2017-10-18T16:58:24.014Z,128.03
2017-10-18T17:00:51.439Z,144.07
2017-10-18T17:03:19.625Z,132.63
2017-10-18T17:05:47.081Z,130.20
2017-10-18T17:08:14.535Z,135.83
2017-10-18T17:10:42.732Z,142.10
2017-10-18T17:13:10.207Z,152.43
2017-10-18T17:15:37.627Z,150.57
2017-10-18T17:18:06.006Z,144.60
2017-10-18T17:20:34.181Z,151.10
2017-10-18T17:23:01.594Z,149.80
2017-10-18T17:25:29.023Z,157.00
2017-10-18T17:27:56.444Z,147.63
2017-10-18T17:30:23.865Z,154.33
2017-10-18T17:32:51.326Z,151.53
2017-10-18T17:35:18.843Z,158.33
2017-10-18T17:37:46.272Z,162.60
2017-10-18T17:40:13.687Z,164.33
2017-10-18T17:42:41.128Z,170.77
2017-10-18T17:45:08.547Z,167.97
2017-10-18T17:47:37.223Z,155.75
2017-10-18T17:50:04.667Z,161.40
2017-10-18T17:52:33.639Z,153.87
2017-10-18T17:55:01.077Z,172.83
2017-10-18T17:57:28.483Z,169.60
2017-10-18T17:59:55.903Z,170.10
2017-10-18T18:02:23.332Z,176.13
2017-10-18T18:04:50.754Z,187.83
2017-10-18T18:07:18.176Z,171.20
2017-10-18T18:09:45.603Z,189.33
2017-10-18T18:12:13.029Z,177.03
2017-10-18T18:14:40.463Z,183.00
2017-10-18T18:17:08.658Z,167.00
2017-10-18T18:19:36.993Z,175.43
2017-10-18T18:22:04.425Z,195.80
2017-10-18T18:24:31.871Z,177.50
2017-10-18T18:26:59.288Z,206.10
2017-10-18T18:29:27.480Z,186.43
2017-10-18T18:31:54.892Z,181.07
2017-10-18T18:34:23.083Z,183.23
2017-10-18T18:36:51.279Z,196.57
2017-10-18T18:39:18.734Z,195.57
2017-10-18T18:41:46.152Z,185.07
2017-10-18T18:44:13.576Z,179.17
2017-10-18T18:46:40.999Z,185.03
2017-10-18T18:49:08.416Z,172.43
2017-10-18T18:51:35.835Z,191.00
2017-10-18T18:54:03.263Z,172.93
2017-10-18T18:56:30.700Z,172.57
2017-10-18T18:58:58.894Z,165.47
2017-10-18T19:01:26.319Z,168.10
2017-10-18T19:03:53.772Z,167.27
2017-10-18T19:06:21.195Z,158.47
2017-10-18T19:08:48.627Z,168.10
2017-10-18T19:11:16.046Z,162.63
2017-10-18T19:13:44.236Z,158.07
2017-10-18T19:16:11.659Z,164.73
2017-10-18T19:18:39.095Z,166.07
2017-10-18T19:21:06.595Z,171.87
2017-10-18T19:23:34.791Z,173.10
2017-10-18T19:26:02.222Z,184.53
2017-10-18T19:28:30.415Z,167.30
2017-10-18T19:30:57.850Z,174.43
2017-10-18T19:33:25.286Z,179.90
2017-10-18T19:35:52.698Z,168.87
2017-10-18T19:38:20.126Z,171.97
2017-10-18T19:40:48.311Z,182.80
2017-10-18T19:43:15.780Z,188.57
2017-10-18T19:45:43.195Z,188.07
2017-10-18T19:48:10.624Z,182.90
2017-10-18T19:50:39.261Z,190.62
2017-10-18T19:53:07.455Z,173.60
2017-10-18T19:55:34.869Z,168.00
2017-10-18T19:58:02.294Z,178.03
2017-10-18T20:00:29.721Z,172.97
2017-10-18T20:02:57.164Z,186.10
2017-10-18T20:05:24.587Z,180.53
2017-10-18T20:07:52.012Z,184.03
2017-10-18T20:10:19.432Z,168.80
2017-10-18T20:12:46.872Z,174.10
2017-10-18T20:15:15.088Z,175.67
2017-10-18T20:17:42.503Z,171.50
2017-10-18T20:20:10.686Z,167.70
2017-10-18T20:22:39.807Z,163.57
2017-10-18T20:25:07.282Z,178.53
2017-10-18T20:27:34.700Z,180.53
2017-10-18T20:30:02.191Z,179.37
2017-10-18T20:32:29.610Z,186.80
2017-10-18T20:34:57.092Z,166.67
2017-10-18T20:37:24.517Z,190.27
2017-10-18T20:39:52.690Z,172.17
2017-10-18T20:42:20.881Z,166.17
2017-10-18T20:44:49.064Z,186.87
2017-10-18T20:47:16.481Z,166.17
2017-10-18T20:49:44.668Z,195.07
2017-10-18T20:52:12.843Z,180.13
2017-10-18T20:54:41.023Z,174.33
2017-10-18T20:57:08.439Z,184.67
2017-10-18T20:59:35.902Z,176.20
2017-10-18T21:02:03.392Z,188.77
2017-10-18T21:04:30.854Z,179.43
2017-10-18T21:06:58.263Z,171.97
2017-10-18T21:09:26.455Z,185.47
2017-10-18T21:11:54.654Z,182.40
2017-10-18T21:14:22.106Z,184.23
2017-10-18T21:16:50.309Z,171.67
2017-10-18T21:19:17.719Z,201.33
2017-10-18T21:21:45.899Z,192.13
2017-10-18T21:24:14.088Z,180.43
2017-10-18T21:26:41.587Z,193.47
2017-10-18T21:29:09.003Z,186.40
2017-10-18T21:31:37.175Z,186.00
2017-10-18T21:34:04.589Z,213.77
2017-10-18T21:36:32.019Z,179.67
2017-10-18T21:38:59.682Z,164.33
2017-10-18T21:41:27.109Z,186.93
2017-10-18T21:43:54.543Z,250.63
2017-10-18T21:46:22.718Z,597.90
2017-10-18T21:48:50.913Z,341.53
2017-10-18T21:51:18.346Z,458.20
2017-10-18T21:53:46.518Z,225.70
2017-10-18T21:56:14.715Z,442.57
2017-10-18T21:58:42.124Z,384.63
2017-10-18T22:01:09.555Z,464.20
2017-10-18T22:03:36.975Z,321.20
2017-10-18T22:06:04.403Z,362.90
2017-10-18T22:08:31.823Z,346.77
2017-10-18T22:10:59.258Z,294.27
2017-10-18T22:13:27.470Z,411.07
2017-10-18T22:15:54.898Z,571.60
2017-10-18T22:18:22.319Z,527.30
2017-10-18T22:20:50.507Z,482.43
2017-10-18T22:23:17.939Z,228.57
2017-10-18T22:25:46.125Z,284.33
2017-10-18T22:28:14.315Z,509.30
2017-10-18T22:30:41.738Z,338.83
2017-10-18T22:33:09.922Z,444.80
2017-10-18T22:35:38.113Z,372.67
2017-10-18T22:38:05.542Z,388.83
2017-10-18T22:40:32.967Z,403.60
2017-10-18T22:43:00.383Z,389.97
2017-10-18T22:45:27.862Z,452.47
2017-10-18T22:47:55.290Z,318.23
2017-10-18T22:50:23.465Z,325.67
2017-10-18T22:52:50.892Z,303.03
2017-10-18T22:55:18.328Z,425.70
2017-10-18T22:57:45.748Z,388.60
2017-10-18T23:00:13.165Z,545.13
2017-10-18T23:02:40.594Z,508.13
2017-10-18T23:05:08.003Z,588.90
2017-10-18T23:07:35.419Z,553.47
2017-10-18T23:10:02.830Z,365.53
2017-10-18T23:12:30.254Z,500.30
2017-10-18T23:14:58.446Z,551.20
2017-10-18T23:17:25.876Z,273.70
2017-10-18T23:19:54.056Z,459.97
2017-10-18T23:22:22.243Z,242.07
2017-10-18T23:24:49.730Z,189.00
2017-10-18T23:27:17.147Z,444.77
2017-10-18T23:29:45.332Z,234.93
2017-10-18T23:32:12.751Z,235.67
2017-10-18T23:34:40.191Z,256.23
2017-10-18T23:37:07.611Z,307.37
2017-10-18T23:39:35.039Z,243.03
2017-10-18T23:42:03.227Z,202.70
2017-10-18T23:44:30.646Z,265.77
2017-10-18T23:46:58.069Z,215.00
2017-10-18T23:49:25.490Z,237.17
2017-10-18T23:51:52.930Z,291.47
2017-10-18T23:54:20.343Z,254.90
2017-10-18T23:56:47.766Z,134.27
2017-10-18T23:59:15.192Z,202.80
